createdAt,value
2022-08-27T00:01:36.365Z,7.25
2022-08-27T00:03:39.267Z,7.05
2022-08-27T00:05:43.514Z,7.55
2022-08-27T00:07:47.906Z,7.97
2022-08-27T00:09:50.591Z,6.97
2022-08-27T00:11:53.276Z,7.07
2022-08-27T00:13:56.936Z,6.93
2022-08-27T00:15:59.633Z,7.40
2022-08-27T00:18:02.287Z,7.18
2022-08-27T00:20:06.492Z,6.80
2022-08-27T00:22:10.272Z,7.75
2022-08-27T00:24:13.344Z,7.63
2022-08-27T00:26:17.104Z,6.90
2022-08-27T00:28:20.003Z,7.25
2022-08-27T00:30:24.281Z,7.57
2022-08-27T00:32:27.137Z,7.35
2022-08-27T00:34:30.075Z,7.53
2022-08-27T00:36:32.727Z,7.85
2022-08-27T00:38:40.963Z,7.95
2022-08-27T00:40:44.986Z,7.32
2022-08-27T00:42:55.090Z,7.43
2022-08-27T00:44:59.948Z,7.50
2022-08-27T00:47:25.316Z,7.82
2022-08-27T00:50:21.027Z,8.07
2022-08-27T00:52:28.540Z,8.88
2022-08-27T00:54:31.533Z,7.90
2022-08-27T00:56:40.857Z,7.75
2022-08-27T00:58:47.908Z,8.15
2022-08-27T01:00:50.937Z,7.55
2022-08-27T01:02:54.082Z,8.27
2022-08-27T01:05:01.554Z,8.05
2022-08-27T01:07:06.334Z,9.38
2022-08-27T01:09:14.678Z,8.13
2022-08-27T01:11:19.012Z,10.15
2022-08-27T01:13:58.823Z,9.80
2022-08-27T01:15:47.961Z,10.18
2022-08-27T01:17:51.879Z,10.95
2022-08-27T01:20:00.663Z,10.73
2022-08-27T01:22:19.921Z,10.30
2022-08-27T01:24:33.100Z,10.25
2022-08-27T01:26:36.948Z,11.15
2022-08-27T01:28:39.799Z,12.07
2022-08-27T01:30:44.059Z,10.48
2022-08-27T01:32:47.784Z,11.00
2022-08-27T01:34:51.590Z,11.55
2022-08-27T01:36:57.322Z,9.85
2022-08-27T01:39:00.375Z,10.60
2022-08-27T01:41:03.368Z,10.45
2022-08-27T01:43:06.330Z,11.20
2022-08-27T01:45:14.973Z,11.00
2022-08-27T01:47:20.634Z,9.75
2022-08-27T01:49:23.392Z,10.10
2022-08-27T01:51:26.218Z,11.20
2022-08-27T01:53:28.929Z,10.07
2022-08-27T01:55:31.653Z,10.18
2022-08-27T01:57:35.435Z,10.93
2022-08-27T01:59:39.755Z,9.65
2022-08-27T02:01:42.984Z,10.18
2022-08-27T02:03:47.634Z,9.18
2022-08-27T02:05:50.782Z,9.13
2022-08-27T02:07:54.488Z,10.10
2022-08-27T02:09:57.148Z,9.18
2022-08-27T02:12:01.021Z,9.55
2022-08-27T02:14:03.779Z,10.10
2022-08-27T02:16:16.590Z,9.40
2022-08-27T02:18:19.478Z,8.60
2022-08-27T02:20:23.111Z,8.70
2022-08-27T02:22:28.520Z,9.68
2022-08-27T02:24:31.224Z,11.05
2022-08-27T02:26:34.123Z,9.18
2022-08-27T02:28:37.171Z,9.20
2022-08-27T02:30:40.052Z,9.45
2022-08-27T02:32:42.791Z,8.35
2022-08-27T02:34:45.512Z,9.48
2022-08-27T02:36:48.418Z,10.23
2022-08-27T02:38:51.573Z,8.93
2022-08-27T02:40:54.289Z,9.82
2022-08-27T02:42:57.055Z,11.02
2022-08-27T02:44:59.770Z,10.27
2022-08-27T02:47:06.121Z,8.70
2022-08-27T02:49:09.774Z,10.30
2022-08-27T02:51:12.621Z,10.23
2022-08-27T02:53:15.530Z,9.88
2022-08-27T02:55:18.786Z,10.40
2022-08-27T02:57:22.622Z,11.23
2022-08-27T02:59:25.307Z,9.75
2022-08-27T03:01:28.696Z,10.95
2022-08-27T03:03:31.787Z,10.65
2022-08-27T03:05:34.566Z,10.80
2022-08-27T03:07:37.690Z,10.77
2022-08-27T03:09:40.824Z,11.43
2022-08-27T03:11:43.464Z,12.18
2022-08-27T03:13:46.210Z,12.00
2022-08-27T03:15:49.398Z,13.73
2022-08-27T03:18:12.054Z,12.90
2022-08-27T03:22:17.369Z,12.38
2022-08-27T03:24:20.040Z,13.38
2022-08-27T03:26:24.707Z,11.18
2022-08-27T03:28:31.932Z,12.25
2022-08-27T03:30:34.720Z,11.38
2022-08-27T03:32:37.914Z,11.60
2022-08-27T03:34:40.568Z,11.85
2022-08-27T03:36:43.952Z,11.90
2022-08-27T03:38:49.824Z,11.43
2022-08-27T03:40:52.661Z,10.50
2022-08-27T03:42:55.831Z,10.57
2022-08-27T03:44:58.602Z,10.55
2022-08-27T03:47:01.396Z,10.90
2022-08-27T03:49:04.931Z,11.32
2022-08-27T03:51:10.249Z,10.55
2022-08-27T03:53:14.548Z,9.05
2022-08-27T03:55:17.227Z,9.63
2022-08-27T03:57:20.085Z,9.88
2022-08-27T03:59:22.752Z,8.88
2022-08-27T04:01:25.460Z,9.80
2022-08-27T04:03:28.664Z,9.13
2022-08-27T04:05:31.627Z,9.75
2022-08-27T04:07:34.289Z,9.35
2022-08-27T04:09:37.040Z,10.07
2022-08-27T04:11:39.683Z,9.05
2022-08-27T04:13:42.324Z,9.52
2022-08-27T04:15:50.041Z,8.60
2022-08-27T04:17:52.934Z,8.93
2022-08-27T04:19:55.632Z,8.68
2022-08-27T04:22:03.066Z,8.50
2022-08-27T04:24:06.023Z,8.50
2022-08-27T04:26:11.397Z,8.68
2022-08-27T04:28:15.610Z,8.10
2022-08-27T04:30:19.599Z,9.32
2022-08-27T04:32:23.593Z,7.93
2022-08-27T04:34:31.092Z,8.60
2022-08-27T04:36:33.817Z,8.55
2022-08-27T04:38:37.495Z,8.05
2022-08-27T04:40:58.758Z,8.40
2022-08-27T04:43:01.396Z,8.65
2022-08-27T04:45:04.880Z,8.70
2022-08-27T04:47:07.737Z,8.05
2022-08-27T04:49:13.668Z,8.77
2022-08-27T04:51:18.639Z,8.82
2022-08-27T04:53:21.522Z,8.05
2022-08-27T04:55:24.804Z,8.48
2022-08-27T04:57:28.104Z,9.52
2022-08-27T04:59:31.965Z,8.73
2022-08-27T05:01:36.999Z,8.90
2022-08-27T05:03:40.192Z,8.75
2022-08-27T05:05:44.799Z,9.90
2022-08-27T05:07:47.706Z,8.45
2022-08-27T05:09:56.185Z,9.15
2022-08-27T05:11:58.917Z,8.88
2022-08-27T05:14:06.700Z,9.02
2022-08-27T05:16:12.812Z,9.07
2022-08-27T05:18:15.691Z,8.70
2022-08-27T05:20:19.690Z,8.93
2022-08-27T05:22:22.334Z,8.85
2022-08-27T05:24:26.343Z,8.50
2022-08-27T05:26:29.927Z,8.38
2022-08-27T05:28:32.671Z,9.00
2022-08-27T05:30:44.480Z,8.70
2022-08-27T05:32:52.252Z,8.35
2022-08-27T05:34:54.908Z,8.00
2022-08-27T05:36:57.645Z,8.50
2022-08-27T05:39:02.184Z,8.10
2022-08-27T05:41:09.257Z,9.15
2022-08-27T05:43:15.989Z,8.57
2022-08-27T05:45:19.655Z,8.15
2022-08-27T05:47:23.198Z,8.40
2022-08-27T05:49:26.404Z,7.93
2022-08-27T05:51:32.818Z,8.23
2022-08-27T05:53:36.544Z,9.45
2022-08-27T05:55:45.904Z,8.18
2022-08-27T05:57:48.715Z,8.18
2022-08-27T06:00:10.101Z,8.00
2022-08-27T06:02:19.776Z,8.10
2022-08-27T06:04:24.728Z,8.10
2022-08-27T06:06:27.551Z,7.95
2022-08-27T06:08:30.607Z,8.40
2022-08-27T06:10:33.727Z,7.88
2022-08-27T06:12:36.486Z,8.07
2022-08-27T06:14:39.378Z,8.15
2022-08-27T06:16:42.837Z,8.18
2022-08-27T06:18:48.071Z,8.05
2022-08-27T06:20:50.728Z,9.38
2022-08-27T06:22:53.581Z,8.25
2022-08-27T06:24:56.314Z,7.72
2022-08-27T06:26:59.704Z,8.80
2022-08-27T06:29:07.617Z,7.68
2022-08-27T06:31:13.970Z,8.50
2022-08-27T06:33:16.959Z,8.27
2022-08-27T06:35:19.599Z,7.43
2022-08-27T06:37:22.274Z,7.75
2022-08-27T06:39:24.978Z,8.40
2022-08-27T06:41:29.203Z,7.60
2022-08-27T06:43:32.403Z,7.05
2022-08-27T06:45:38.920Z,8.13
2022-08-27T06:47:41.921Z,7.03
2022-08-27T06:49:46.553Z,8.93
2022-08-27T06:51:49.365Z,8.38
2022-08-27T06:53:53.394Z,7.80
2022-08-27T06:55:56.093Z,7.47
2022-08-27T06:57:58.837Z,7.53
2022-08-27T07:00:01.893Z,8.43
2022-08-27T07:02:07.546Z,7.68
2022-08-27T07:04:14.323Z,7.95
2022-08-27T07:06:18.332Z,7.85
2022-08-27T07:08:21.031Z,7.40
2022-08-27T07:10:24.853Z,8.35
2022-08-27T07:12:30.349Z,6.93
2022-08-27T07:14:37.992Z,7.65
2022-08-27T07:16:41.395Z,7.32
2022-08-27T07:18:44.220Z,7.38
2022-08-27T07:20:48.256Z,8.25
2022-08-27T07:22:54.481Z,7.68
2022-08-27T07:24:57.166Z,7.13
2022-08-27T07:27:00.055Z,7.93
2022-08-27T07:29:07.707Z,8.38
2022-08-27T07:31:12.937Z,7.93
2022-08-27T07:33:15.906Z,8.00
2022-08-27T07:35:19.050Z,8.10
2022-08-27T07:37:22.450Z,7.57
2022-08-27T07:39:26.403Z,8.40
2022-08-27T07:41:33.324Z,7.28
2022-08-27T07:43:56.085Z,8.07
2022-08-27T07:46:02.124Z,6.88
2022-08-27T07:48:04.968Z,8.15
2022-08-27T07:50:08.133Z,8.45
2022-08-27T07:52:12.007Z,10.30
2022-08-27T07:54:16.395Z,8.98
2022-08-27T07:56:19.872Z,8.35
2022-08-27T07:58:24.307Z,9.20
2022-08-27T08:00:28.961Z,8.70
2022-08-27T08:02:31.852Z,8.75
2022-08-27T08:04:34.755Z,9.05
2022-08-27T08:06:39.592Z,8.07
2022-08-27T08:08:44.020Z,8.30
2022-08-27T08:10:49.131Z,8.55
2022-08-27T08:12:51.994Z,8.32
2022-08-27T08:14:58.124Z,8.80
2022-08-27T08:17:02.931Z,8.82
2022-08-27T08:19:09.604Z,8.43
2022-08-27T08:21:14.459Z,8.18
2022-08-27T08:23:17.331Z,8.88
2022-08-27T08:25:20.092Z,7.93
2022-08-27T08:27:23.064Z,7.82
2022-08-27T08:29:25.823Z,7.95
2022-08-27T08:31:29.891Z,8.65
2022-08-27T08:33:34.030Z,8.82
2022-08-27T08:35:41.566Z,8.07
2022-08-27T08:37:44.982Z,6.70
2022-08-27T08:39:47.899Z,7.95
2022-08-27T08:42:01.949Z,7.43
2022-08-27T08:44:17.023Z,7.50
2022-08-27T08:46:34.487Z,8.55
2022-08-27T08:48:43.771Z,7.00
2022-08-27T08:50:59.462Z,7.20
2022-08-27T08:53:08.636Z,7.57
2022-08-27T08:55:32.683Z,8.52
2022-08-27T08:57:48.943Z,7.68
2022-08-27T09:00:02.059Z,7.75
2022-08-27T09:02:13.581Z,6.63
2022-08-27T09:04:16.779Z,7.13
2022-08-27T09:06:43.797Z,7.38
2022-08-27T09:08:48.568Z,6.68
2022-08-27T09:11:08.466Z,7.05
2022-08-27T09:13:33.710Z,6.82
2022-08-27T09:15:37.325Z,6.65
2022-08-27T09:17:42.891Z,7.53
2022-08-27T09:19:47.085Z,7.15
2022-08-27T09:22:16.184Z,7.72
2022-08-27T09:24:27.547Z,7.15
2022-08-27T09:26:34.482Z,6.80
2022-08-27T09:29:00.070Z,6.93
2022-08-27T09:31:09.234Z,8.10
2022-08-27T09:33:11.932Z,7.35
2022-08-27T09:35:16.878Z,7.40
2022-08-27T09:37:34.424Z,7.18
2022-08-27T09:39:56.932Z,6.97
2022-08-27T09:42:00.004Z,6.50
2022-08-27T09:44:09.500Z,7.97
2022-08-27T09:46:30.454Z,7.68
2022-08-27T09:50:46.125Z,7.45
2022-08-27T09:52:55.808Z,6.88
2022-08-27T09:54:59.953Z,7.10
2022-08-27T09:57:08.602Z,6.63
2022-08-27T09:59:23.513Z,7.15
2022-08-27T10:01:29.727Z,7.00
2022-08-27T10:03:33.653Z,7.63
2022-08-27T10:05:47.414Z,7.30
2022-08-27T10:07:57.149Z,7.28
2022-08-27T10:10:49.583Z,7.20
2022-08-27T10:13:22.091Z,7.20
2022-08-27T10:15:30.567Z,6.97
2022-08-27T10:17:50.295Z,6.65
2022-08-27T10:19:59.732Z,6.93
2022-08-27T10:22:32.085Z,7.32
2022-08-27T10:25:18.265Z,7.32
2022-08-27T10:27:40.387Z,7.43
2022-08-27T10:29:59.342Z,6.70
2022-08-27T10:32:31.416Z,7.13
2022-08-27T10:34:51.810Z,7.72
2022-08-27T10:37:04.316Z,8.85
2022-08-27T10:39:37.171Z,8.18
2022-08-27T10:41:46.033Z,8.38
2022-08-27T10:44:25.883Z,9.98
2022-08-27T10:46:55.473Z,8.43
2022-08-27T10:49:20.909Z,8.35
2022-08-27T10:51:32.640Z,9.10
2022-08-27T10:53:37.996Z,8.65
2022-08-27T10:55:51.981Z,8.30
2022-08-27T10:58:24.962Z,7.57
2022-08-27T11:00:38.182Z,7.85
2022-08-27T11:02:45.109Z,8.07
2022-08-27T11:04:53.721Z,8.00
2022-08-27T11:07:12.150Z,8.45
2022-08-27T11:09:38.652Z,8.32
2022-08-27T11:14:35.678Z,8.18
2022-08-27T11:16:47.337Z,8.93
2022-08-27T11:18:56.609Z,7.93
2022-08-27T11:21:05.277Z,7.78
2022-08-27T11:23:17.592Z,7.55
2022-08-27T11:25:22.989Z,8.70
2022-08-27T11:27:30.458Z,7.15
2022-08-27T11:30:00.404Z,8.68
2022-08-27T11:32:10.755Z,8.30
2022-08-27T11:34:22.093Z,8.35
2022-08-27T11:36:43.335Z,7.90
2022-08-27T11:39:14.013Z,7.88
2022-08-27T11:41:48.192Z,8.80
2022-08-27T11:43:53.202Z,8.25
2022-08-27T11:46:03.770Z,8.07
2022-08-27T11:48:26.047Z,8.52
2022-08-27T11:50:31.400Z,8.52
2022-08-27T11:52:40.832Z,8.32
2022-08-27T11:54:51.426Z,8.65
2022-08-27T11:59:08.412Z,8.82
2022-08-27T12:01:28.680Z,8.55
2022-08-27T12:03:35.409Z,9.23
2022-08-27T12:05:53.906Z,8.82
2022-08-27T12:07:57.812Z,8.20
2022-08-27T12:10:00.338Z,7.53
2022-08-27T12:12:20.198Z,8.57
2022-08-27T12:14:41.647Z,7.85
2022-08-27T12:16:49.839Z,8.38
2022-08-27T12:18:57.999Z,7.78
2022-08-27T12:21:18.991Z,7.97
2022-08-27T12:23:40.298Z,8.68
2022-08-27T12:26:15.772Z,8.52
2022-08-27T12:28:26.688Z,8.80
2022-08-27T12:30:35.852Z,8.77
2022-08-27T12:32:45.172Z,7.97
2022-08-27T12:34:57.779Z,9.20
2022-08-27T12:37:07.433Z,8.63
2022-08-27T12:39:17.441Z,8.82
2022-08-27T12:41:29.447Z,9.02
2022-08-27T12:43:33.925Z,8.65
2022-08-27T12:45:46.125Z,8.02
2022-08-27T12:47:50.957Z,8.10
2022-08-27T12:50:00.710Z,9.05
2022-08-27T12:52:15.793Z,8.15
2022-08-27T12:54:38.686Z,8.00
2022-08-27T12:57:07.632Z,9.05
2022-08-27T12:59:36.014Z,8.77
2022-08-27T13:01:54.908Z,8.77
2022-08-27T13:04:01.197Z,9.25
2022-08-27T13:06:17.286Z,9.45
2022-08-27T13:08:23.838Z,8.82
2022-08-27T13:10:31.267Z,8.55
2022-08-27T13:12:34.003Z,9.13
2022-08-27T13:14:41.134Z,8.68
2022-08-27T13:16:57.837Z,8.40
2022-08-27T13:19:00.764Z,8.82
2022-08-27T13:21:12.570Z,10.35
2022-08-27T13:23:22.701Z,8.85
2022-08-27T13:25:31.033Z,9.20
2022-08-27T13:27:37.616Z,9.15
2022-08-27T13:29:42.566Z,9.57
2022-08-27T13:31:46.047Z,10.93
2022-08-27T13:33:49.177Z,12.63
2022-08-27T13:35:52.086Z,10.50
2022-08-27T13:37:56.001Z,9.77
2022-08-27T13:39:58.990Z,9.35
2022-08-27T13:42:04.550Z,10.25
2022-08-27T13:44:19.024Z,8.95
2022-08-27T13:46:31.541Z,11.32
2022-08-27T13:48:34.357Z,9.68
2022-08-27T13:50:37.472Z,9.65
2022-08-27T13:53:01.881Z,9.07
2022-08-27T13:55:15.251Z,9.63
2022-08-27T13:57:39.914Z,11.02
2022-08-27T13:59:42.861Z,12.02
2022-08-27T14:02:03.621Z,12.10
2022-08-27T14:06:23.962Z,10.75
2022-08-27T14:08:36.369Z,10.57
2022-08-27T14:10:41.081Z,9.30
2022-08-27T14:12:45.329Z,11.65
2022-08-27T14:14:54.547Z,11.48
2022-08-27T14:17:08.992Z,10.65
2022-08-27T14:19:28.642Z,17.83
2022-08-27T14:21:39.726Z,14.00
2022-08-27T14:23:42.408Z,11.95
2022-08-27T14:25:46.388Z,12.30
2022-08-27T14:27:53.087Z,13.30
2022-08-27T14:29:57.334Z,19.08
2022-08-27T14:32:00.816Z,30.33
2022-08-27T14:34:03.462Z,22.58
2022-08-27T14:36:07.525Z,22.08
2022-08-27T14:38:22.936Z,20.20
2022-08-27T14:40:25.691Z,19.20
2022-08-27T14:42:28.998Z,19.00
2022-08-27T14:44:31.933Z,26.88
2022-08-27T14:46:41.543Z,21.83
2022-08-27T14:48:46.291Z,20.10
2022-08-27T14:50:54.518Z,20.83
2022-08-27T14:52:57.093Z,18.70
2022-08-27T14:54:59.730Z,19.35
2022-08-27T14:57:04.220Z,16.33
2022-08-27T14:59:07.302Z,14.75
2022-08-27T15:01:10.340Z,13.48
2022-08-27T15:03:13.112Z,10.73
2022-08-27T15:05:17.819Z,17.48
2022-08-27T15:07:20.639Z,17.77
2022-08-27T15:09:26.321Z,11.38
2022-08-27T15:11:32.520Z,15.93
2022-08-27T15:13:35.122Z,16.40
2022-08-27T15:15:41.634Z,16.38
2022-08-27T15:17:44.303Z,11.85
2022-08-27T15:19:47.180Z,11.73
2022-08-27T15:21:53.194Z,11.40
2022-08-27T15:24:00.338Z,11.25
2022-08-27T15:26:03.122Z,9.82
2022-08-27T15:28:07.082Z,10.25
2022-08-27T15:30:12.729Z,9.70
2022-08-27T15:32:35.035Z,9.88
2022-08-27T15:34:37.663Z,8.93
2022-08-27T15:36:41.054Z,9.73
2022-08-27T15:38:43.681Z,10.40
2022-08-27T15:40:46.700Z,11.50
2022-08-27T15:42:55.456Z,10.00
2022-08-27T15:44:58.281Z,10.25
2022-08-27T15:47:00.941Z,10.82
2022-08-27T15:49:04.405Z,10.70
2022-08-27T15:51:10.795Z,10.63
2022-08-27T15:53:13.503Z,11.25
2022-08-27T15:55:33.881Z,11.27
2022-08-27T15:57:36.483Z,11.55
2022-08-27T15:59:40.351Z,12.43
2022-08-27T16:01:43.751Z,12.23
2022-08-27T16:03:47.009Z,10.27
2022-08-27T16:05:49.680Z,48.53
2022-08-27T16:07:52.281Z,15.15
2022-08-27T16:09:55.117Z,15.52
2022-08-27T16:11:58.649Z,16.17
2022-08-27T16:14:01.607Z,12.43
2022-08-27T16:16:06.174Z,12.10
2022-08-27T16:18:10.150Z,11.60
2022-08-27T16:20:15.433Z,11.13
2022-08-27T16:22:18.501Z,10.35
2022-08-27T16:24:21.881Z,11.40
2022-08-27T16:26:24.547Z,11.88
2022-08-27T16:28:27.387Z,11.65
2022-08-27T16:30:30.426Z,10.10
2022-08-27T16:32:33.104Z,10.30
2022-08-27T16:34:35.752Z,11.00
2022-08-27T16:36:38.315Z,10.57
2022-08-27T16:38:41.015Z,11.25
2022-08-27T16:40:47.912Z,8.95
2022-08-27T16:42:52.116Z,12.30
2022-08-27T16:44:56.890Z,12.38
2022-08-27T16:46:59.465Z,13.38
2022-08-27T16:49:20.793Z,12.43
2022-08-27T16:51:29.598Z,12.90
2022-08-27T16:53:41.367Z,11.88
2022-08-27T16:55:46.146Z,10.98
2022-08-27T16:57:48.669Z,11.05
2022-08-27T16:59:51.429Z,11.25
2022-08-27T17:01:54.677Z,11.35
2022-08-27T17:04:14.830Z,11.55
2022-08-27T17:06:25.680Z,11.82
2022-08-27T17:08:30.442Z,11.32
2022-08-27T17:10:40.802Z,12.65
2022-08-27T17:12:47.304Z,11.07
2022-08-27T17:14:51.294Z,11.15
2022-08-27T17:16:54.779Z,11.15
2022-08-27T17:19:00.917Z,11.35
2022-08-27T17:21:04.897Z,11.30
2022-08-27T17:23:15.564Z,10.63
2022-08-27T17:25:18.281Z,10.88
2022-08-27T17:27:20.883Z,10.82
2022-08-27T17:29:23.929Z,11.00
2022-08-27T17:31:37.357Z,10.18
2022-08-27T17:33:51.494Z,10.52
2022-08-27T17:35:54.086Z,9.85
2022-08-27T17:37:56.684Z,10.30
2022-08-27T17:39:59.332Z,10.15
2022-08-27T17:42:01.963Z,10.07
2022-08-27T17:44:19.739Z,9.75
2022-08-27T17:46:22.285Z,10.38
2022-08-27T17:48:26.705Z,10.73
2022-08-27T17:50:29.643Z,9.07
2022-08-27T17:52:34.098Z,9.50
2022-08-27T17:54:45.933Z,8.65
2022-08-27T17:56:51.642Z,10.57
2022-08-27T17:58:54.658Z,9.68
2022-08-27T18:00:57.402Z,10.05
2022-08-27T18:03:00.635Z,9.75
2022-08-27T18:05:04.738Z,10.93
2022-08-27T18:07:07.566Z,8.73
2022-08-27T18:09:10.593Z,9.70
2022-08-27T18:11:13.739Z,9.15
2022-08-27T18:13:17.905Z,8.30
2022-08-27T18:15:29.097Z,10.18
2022-08-27T18:17:34.303Z,8.98
2022-08-27T18:19:45.415Z,8.60
2022-08-27T18:21:48.336Z,9.35
2022-08-27T18:23:51.699Z,9.70
2022-08-27T18:25:55.632Z,8.98
2022-08-27T18:28:01.438Z,8.27
2022-08-27T18:30:06.462Z,8.10
2022-08-27T18:32:09.039Z,8.63
2022-08-27T18:34:11.718Z,9.88
2022-08-27T18:36:15.483Z,9.77
2022-08-27T18:38:18.658Z,9.13
2022-08-27T18:40:24.176Z,8.73
2022-08-27T18:42:38.146Z,8.77
2022-08-27T18:44:43.226Z,8.95
2022-08-27T18:46:46.137Z,10.50
2022-08-27T18:48:48.723Z,9.32
2022-08-27T18:50:58.884Z,9.43
2022-08-27T18:53:02.955Z,11.33
2022-08-27T18:55:08.508Z,8.88
2022-08-27T18:57:12.971Z,9.52
2022-08-27T18:59:16.298Z,10.38
2022-08-27T19:01:24.790Z,9.60
2022-08-27T19:03:33.769Z,9.88
2022-08-27T19:05:36.481Z,9.00
2022-08-27T19:07:39.521Z,9.80
2022-08-27T19:09:43.008Z,9.82
2022-08-27T19:11:45.754Z,9.50
2022-08-27T19:13:50.634Z,9.70
2022-08-27T19:16:06.684Z,9.38
2022-08-27T19:18:09.746Z,9.18
2022-08-27T19:20:12.910Z,10.05
2022-08-27T19:22:15.770Z,10.00
2022-08-27T19:24:19.351Z,9.88
2022-08-27T19:26:25.494Z,10.32
2022-08-27T19:28:37.523Z,10.40
2022-08-27T19:30:40.231Z,9.32
2022-08-27T19:32:43.144Z,10.23
2022-08-27T19:34:45.959Z,9.20
2022-08-27T19:36:48.573Z,8.10
2022-08-27T19:38:53.024Z,8.23
2022-08-27T19:40:55.806Z,8.23
2022-08-27T19:42:58.553Z,15.10
2022-08-27T19:45:01.245Z,12.05
2022-08-27T19:47:07.681Z,10.20
2022-08-27T19:49:10.373Z,10.02
2022-08-27T19:51:13.577Z,10.65
2022-08-27T19:53:16.345Z,11.68
2022-08-27T19:55:19.731Z,8.30
2022-08-27T19:57:22.420Z,9.82
2022-08-27T19:59:25.344Z,8.65
2022-08-27T20:01:27.940Z,8.50
2022-08-27T20:03:30.683Z,6.53
2022-08-27T20:05:33.479Z,7.00
2022-08-27T20:07:36.086Z,9.68
2022-08-27T20:09:38.727Z,10.70
2022-08-27T20:11:43.460Z,9.70
2022-08-27T20:13:50.495Z,10.20
2022-08-27T20:15:53.468Z,10.60
2022-08-27T20:17:56.116Z,10.50
2022-08-27T20:19:59.090Z,10.60
2022-08-27T20:22:02.576Z,10.45
2022-08-27T20:24:05.853Z,8.52
2022-08-27T20:26:08.656Z,9.25
2022-08-27T20:28:35.435Z,10.02
2022-08-27T20:30:34.966Z,10.38
2022-08-27T20:32:37.974Z,10.68
2022-08-27T20:34:40.752Z,10.43
2022-08-27T20:36:43.554Z,9.98
2022-08-27T20:38:46.266Z,10.43
2022-08-27T20:40:49.435Z,10.80
2022-08-27T20:42:52.373Z,10.18
2022-08-27T20:44:54.904Z,9.98
2022-08-27T20:47:01.156Z,10.77
2022-08-27T20:49:04.591Z,10.90
2022-08-27T20:51:07.466Z,9.52
2022-08-27T20:53:10.036Z,12.02
2022-08-27T20:55:14.354Z,10.75
2022-08-27T20:57:17.089Z,10.10
2022-08-27T20:59:38.455Z,9.88
2022-08-27T21:01:41.099Z,9.40
2022-08-27T21:03:43.817Z,10.07
2022-08-27T21:05:48.782Z,10.40
2022-08-27T21:07:53.125Z,10.55
2022-08-27T21:09:57.543Z,9.70
2022-08-27T21:12:00.371Z,9.43
2022-08-27T21:14:03.026Z,9.98
2022-08-27T21:16:06.212Z,10.25
2022-08-27T21:18:08.844Z,9.15
2022-08-27T21:20:13.094Z,8.70
2022-08-27T21:22:15.825Z,8.95
2022-08-27T21:24:18.955Z,10.07
2022-08-27T21:26:23.075Z,11.07
2022-08-27T21:28:25.833Z,11.02
2022-08-27T21:30:28.473Z,11.38
2022-08-27T21:32:31.062Z,10.98
2022-08-27T21:34:33.702Z,12.15
2022-08-27T21:36:36.921Z,11.07
2022-08-27T21:38:39.962Z,11.43
2022-08-27T21:40:42.721Z,10.93
2022-08-27T21:42:45.388Z,10.88
2022-08-27T21:44:47.975Z,10.50
2022-08-27T21:46:50.550Z,10.93
2022-08-27T21:48:58.662Z,10.98
2022-08-27T21:51:11.159Z,10.50
2022-08-27T21:53:13.869Z,10.43
2022-08-27T21:55:16.932Z,10.85
2022-08-27T21:57:19.878Z,10.63
2022-08-27T21:59:22.648Z,11.43
2022-08-27T22:01:25.284Z,11.23
2022-08-27T22:03:27.849Z,11.70
2022-08-27T22:05:30.391Z,11.35
2022-08-27T22:07:33.031Z,10.38
2022-08-27T22:09:35.819Z,10.20
2022-08-27T22:11:38.403Z,10.38
2022-08-27T22:13:41.152Z,10.68
2022-08-27T22:15:44.169Z,10.57
2022-08-27T22:17:51.131Z,9.63
2022-08-27T22:19:54.038Z,10.00
2022-08-27T22:21:56.918Z,9.57
2022-08-27T22:23:59.751Z,9.80
2022-08-27T22:26:03.521Z,10.57
2022-08-27T22:28:06.421Z,10.20
2022-08-27T22:30:11.419Z,10.50
2022-08-27T22:32:14.102Z,10.88
2022-08-27T22:34:17.175Z,9.75
2022-08-27T22:36:20.408Z,9.65
2022-08-27T22:38:23.028Z,9.80
2022-08-27T22:40:29.303Z,9.82
2022-08-27T22:42:33.079Z,10.50
2022-08-27T22:44:38.647Z,9.48
2022-08-27T22:46:41.363Z,10.23
2022-08-27T22:48:44.079Z,9.90
2022-08-27T22:50:46.878Z,9.23
2022-08-27T22:52:49.880Z,10.88
2022-08-27T22:54:54.822Z,10.20
2022-08-27T22:56:57.613Z,10.45
2022-08-27T22:59:00.356Z,10.77
2022-08-27T23:01:03.114Z,10.18
2022-08-27T23:03:09.235Z,10.20
2022-08-27T23:05:13.554Z,10.27
2022-08-27T23:07:16.202Z,11.15
2022-08-27T23:09:19.014Z,10.50
2022-08-27T23:11:21.633Z,11.38
2022-08-27T23:13:24.518Z,10.48
2022-08-27T23:15:29.429Z,10.65
2022-08-27T23:17:31.983Z,10.73
2022-08-27T23:19:34.562Z,10.98
2022-08-27T23:21:37.388Z,10.93
2022-08-27T23:23:39.991Z,10.95
2022-08-27T23:26:01.442Z,11.45
2022-08-27T23:28:06.530Z,9.98
2022-08-27T23:30:10.808Z,11.50
2022-08-27T23:32:14.408Z,11.75
2022-08-27T23:34:18.161Z,10.95
2022-08-27T23:36:21.850Z,11.38
2022-08-27T23:38:24.568Z,11.98
2022-08-27T23:40:27.429Z,11.57
2022-08-27T23:42:30.138Z,11.80
2022-08-27T23:44:32.713Z,12.18
2022-08-27T23:46:35.310Z,12.32
2022-08-27T23:48:39.514Z,12.77
2022-08-27T23:50:42.623Z,11.50
2022-08-27T23:52:45.310Z,12.38
2022-08-27T23:54:47.938Z,11.70
2022-08-27T23:56:50.557Z,12.27
2022-08-27T23:58:53.183Z,12.20
